• Join FlightAware (Why Join?)
  • Login
  • US Flag 
12:51AM EDT


 

Airport Tracker/Info


-or-


 

Live Flight TrackerFlight Track Log ✈ EGF3776 ✈ 17-May-2013 ✈ KORD - KCLE

Flight Track Log - Related Links

Times and Time Zones

All times are in EDT time to prevent confusion due to time zone crossing. See the EGF3776 flight status page for this flight to view local times or setup timezone preferences in your user account.

Time Position Orientation Groundspeed Altitude Reporting Facility
EDT Latitude Longitude Course Direction KTS MPH feet Rate Location/Type
11:29PM 42.0000 -87.9167 77° East 176 203 1,700  Level Chicago TRACON
11:30PM 42.0500 -87.9333 346° North 245 282 3,900 2,100 Climbing Chicago TRACON
11:32PM 42.0360 -87.4651 79° East  Level FlightAware Approximate
11:32PM 42.0731 -87.7631 80° East 269 310 7,600  Level Chicago Center
11:33PM 42.0576 -87.3176 78° East  Level FlightAware Approximate
11:33PM 42.0767 -87.6536 87° East 288 331 10,500  Level Chicago Center
11:34PM 42.0802 -87.1704 78° East  Level FlightAware Approximate
11:34PM 42.0839 -87.5433 85° East 294 338 12,800  Level Chicago Center
11:35PM 42.1017 -87.0231 77° East  Level FlightAware Approximate
11:35PM 42.0911 -87.4211 85° East 319 367 14,000  Level Chicago Center
11:36PM 42.1000 -87.2772 85° East 375 432 15,300 1,680 Climbing Chicago Center
11:37PM 42.1092 -87.1036 86° East 387 445 17,400 1,680 Climbing Chicago Center
11:38PM 42.1153 -86.9586 87° East 389 448 18,800 1,380 Climbing Chicago Center
11:39PM 42.1206 -86.8067 87° East 402 463 20,300 1,380 Climbing Chicago Center
11:40PM 42.1244 -86.6686 88° East 416 479 21,600 1,320 Climbing Chicago Center
11:41PM 42.1300 -86.5125 87° East 426 490 23,000 1,140 Climbing Chicago Center
11:42PM 42.1356 -86.3486 87° East 434 499 24,000 960 Climbing Chicago Center
11:43PM 42.0458 -86.1947 128° Southeast 453 521 25,000 480 Climbing Chicago Center
11:44PM 41.9556 -86.0931 140° Southeast 434 499 25,000  Level Chicago Center
11:45PM 41.8706 -85.9989 140° Southeast 411 473 25,000  Level Chicago Center
11:46PM 41.7875 -85.9025 139° Southeast 399 459 25,000  Level Chicago Center
11:47PM 41.7558 -85.7625 107° East 402 463 25,000  Level Chicago Center
11:48PM 41.7453 -85.6128 95° East 402 463 25,000  Level Chicago Center
11:49PM 41.7350 -85.4525 95° East 417 480 25,000  Level Chicago Center
11:50PM 41.7197 -85.2772 97° East 455 524 25,000  Level Chicago Center
11:51PM 41.7058 -85.0961 96° East 482 555 25,000  Level Chicago Center
11:52PM 41.6972 -84.9581 95° East 485 558 25,000  Level Cleveland Center
11:53PM 41.6808 -84.7792 97° East 499 574 25,000  Level Cleveland Center
11:54PM 41.6683 -84.6086 96° East 485 558 25,000  Level Cleveland Center
11:55PM 41.6553 -84.4408 96° East 473 544 25,000  Level Cleveland Center
11:56PM 41.6364 -84.2564 98° East 460 529 25,000  Level Cleveland Center
11:57PM 41.6208 -84.0861 97° East 460 529 25,000  Level Cleveland Center
11:58PM 41.6047 -83.9214 97° East 455 524 25,000  Level Cleveland Center
11:59PM 41.5928 -83.7594 96° East 448 516 25,000 -360 Level Cleveland Center
12:00AM 41.5764 -83.5950 98° East 448 516 24,300 -1,140 Descending Cleveland Center
12:01AM 41.5619 -83.4306 97° East 448 516 22,800 -1,740 Descending Cleveland Center
12:02AM 41.5489 -83.2772 96° East 442 509 20,900 -1,980 Descending Cleveland Center
12:03AM 41.5356 -83.1242 97° East 424 488 18,900 -2,100 Descending Cleveland Center
12:03AM 41.5322 -83.0881 97° East 414 476 18,300 -1,800 Descending Cleveland Center
12:04AM 41.5203 -82.9739 98° East 418 481 17,100 -1,920 Descending Cleveland Center
12:05AM 41.5153 -82.9069 96° East 388 447 16,000 -2,040 Descending Cleveland Center
12:05AM 41.5064 -82.8319 99° East 400 460 15,100 -2,040 Descending Cleveland Center
12:06AM 41.4992 -82.7706 99° East 376 433 14,000 -2,100 Descending Cleveland Center
12:06AM 41.4922 -82.6956 97° East 379 436 13,000 -1,980 Descending Cleveland Center
12:07AM 41.4872 -82.6317 96° East 373 429 12,000 -2,040 Descending Cleveland Center
12:07AM 41.4739 -82.5592 104° East 379 436 11,000 -1,920 Descending Cleveland Center
12:08AM 41.4581 -82.5006 110° East 360 414 10,100 -900 Descending Cleveland Center
12:08AM 41.4444 -82.4419 107° East 353 406 10,100 -900 Level Cleveland Center
12:09AM 41.4308 -82.3917 110° East 282 325 9,200 -2,100 Descending Cleveland Center
12:09AM 41.4192 -82.3358 106° East 307 353 8,000 -2,400 Descending Cleveland Center
12:10AM 41.4072 -82.2886 109° East 290 334 6,800 -1,920 Descending Cleveland Center
12:10AM 41.3956 -82.2383 107° East 280 322 6,100 -1,740 Descending Cleveland Center
12:11AM 41.3836 -82.1967 111° Southeast 250 288 5,100 -1,920 Descending Cleveland Center
12:11AM 41.3758 -82.1550 104° East 252 290 4,200 -1,020 Descending Cleveland Center
12:12AM 41.3661 -82.1158 108° East 221 254 4,100 -300 Descending Cleveland Center
12:12AM 41.3581 -82.0853 109° East 233 268 3,900 -1,020 Descending Cleveland Center
12:13AM 41.3481 -82.0464 109° East 182 209 3,100 -1,020 Descending Cleveland Center
12:13AM 41.3422 -82.0242 109° East 194 223 2,900 -600 Descending Cleveland Center
12:14AM 41.3406 -81.9853 93° East 152 175 2,500 -600 Descending Cleveland Center
12:15AM 41.3600 -81.9386 61° Northeast 141 162 2,000 -600 Descending Cleveland Center
12:16AM 41.3811 -81.9031 52° Northeast 118 136 1,400 -600 Descending Cleveland Center
12:18AM 41.4000 -81.8500 90° East  Level FlightAware Approximate